createdAt,value
2018-06-25T00:02:21.277Z,18.16
2018-06-25T00:04:51.648Z,18.06
2018-06-25T00:07:21.717Z,17.98
2018-06-25T00:09:52.617Z,17.93
2018-06-25T00:12:22.720Z,17.91
2018-06-25T00:14:52.876Z,17.88
2018-06-25T00:17:23.223Z,17.91
2018-06-25T00:19:53.539Z,17.90
2018-06-25T00:22:23.877Z,17.87
2018-06-25T00:24:53.950Z,17.84
2018-06-25T00:27:24.739Z,17.79
2018-06-25T00:29:55.199Z,17.74
2018-06-25T00:32:25.536Z,17.76
2018-06-25T00:34:55.647Z,17.75
2018-06-25T00:37:25.698Z,17.70
2018-06-25T00:39:55.940Z,17.70
2018-06-25T00:42:26.046Z,17.67
2018-06-25T00:44:56.559Z,17.64
2018-06-25T00:47:26.863Z,17.53
2018-06-25T00:49:57.101Z,17.45
2018-06-25T00:52:26.923Z,17.37
2018-06-25T00:54:57.142Z,17.28
2018-06-25T00:57:27.470Z,17.24
2018-06-25T00:59:57.610Z,17.22
2018-06-25T01:02:27.792Z,17.20
2018-06-25T01:04:58.119Z,17.20
2018-06-25T01:07:28.263Z,17.18
2018-06-25T01:09:58.499Z,17.20
2018-06-25T01:12:28.703Z,17.19
2018-06-25T01:14:59.254Z,17.22
2018-06-25T01:17:29.344Z,17.25
2018-06-25T01:19:59.494Z,17.27
2018-06-25T01:22:29.749Z,17.27
2018-06-25T01:25:00.702Z,17.22
2018-06-25T01:27:31.115Z,17.18
2018-06-25T01:30:01.974Z,17.16
2018-06-25T01:32:32.468Z,17.16
2018-06-25T01:35:02.661Z,17.16
2018-06-25T01:37:32.929Z,17.16
2018-06-25T01:40:03.734Z,17.11
2018-06-25T01:42:34.692Z,17.12
2018-06-25T01:45:05.335Z,17.04
2018-06-25T01:47:35.649Z,17.06
2018-06-25T01:50:06.021Z,17.04
2018-06-25T01:52:36.244Z,17.03
2018-06-25T01:55:06.671Z,17.01
2018-06-25T01:57:37.125Z,17.04
2018-06-25T02:00:08.160Z,17.05
2018-06-25T02:02:38.389Z,17.05
2018-06-25T02:05:08.710Z,17.04
2018-06-25T02:07:39.196Z,16.98
2018-06-25T02:10:09.783Z,17.03
2018-06-25T02:12:40.071Z,17.06
2018-06-25T02:15:10.307Z,17.06
2018-06-25T02:17:40.249Z,17.06
2018-06-25T02:20:10.418Z,17.03
2018-06-25T02:22:40.619Z,16.98
2018-06-25T02:25:11.092Z,16.97
2018-06-25T02:27:41.613Z,16.95
2018-06-25T02:30:11.721Z,16.93
2018-06-25T02:32:41.844Z,16.89
2018-06-25T02:35:12.102Z,16.83
2018-06-25T02:37:42.195Z,16.76
2018-06-25T02:40:12.435Z,16.72
2018-06-25T02:42:43.192Z,16.66
2018-06-25T02:45:13.492Z,16.62
2018-06-25T02:47:44.249Z,16.60
2018-06-25T02:50:14.521Z,16.58
2018-06-25T02:52:44.661Z,16.53
2018-06-25T02:55:14.762Z,16.49
2018-06-25T02:57:44.947Z,16.46
2018-06-25T03:00:15.116Z,16.44
2018-06-25T03:02:45.221Z,16.41
2018-06-25T03:05:15.584Z,16.42
2018-06-25T03:07:46.057Z,16.41
2018-06-25T03:10:16.193Z,16.41
2018-06-25T03:12:46.323Z,16.40
2018-06-25T03:15:16.268Z,16.39
2018-06-25T03:17:46.259Z,16.36
2018-06-25T03:20:16.732Z,16.32
2018-06-25T03:22:46.900Z,16.26
2018-06-25T03:25:18.154Z,16.22
2018-06-25T03:27:48.790Z,16.17
2018-06-25T03:30:18.898Z,16.16
2018-06-25T03:32:50.449Z,16.17
2018-06-25T03:35:20.552Z,16.19
2018-06-25T03:37:50.846Z,16.19
2018-06-25T03:40:20.962Z,16.18
2018-06-25T03:42:51.373Z,16.18
2018-06-25T03:45:21.487Z,16.19
2018-06-25T03:47:51.667Z,16.22
2018-06-25T03:50:21.809Z,16.27
2018-06-25T03:52:52.438Z,16.30
2018-06-25T03:55:23.245Z,16.34
2018-06-25T03:57:53.633Z,16.34
2018-06-25T04:00:23.788Z,16.37
2018-06-25T04:02:54.068Z,16.38
2018-06-25T04:05:24.286Z,16.37
2018-06-25T04:07:54.295Z,16.34
2018-06-25T04:10:24.450Z,16.34
2018-06-25T04:12:54.767Z,16.34
2018-06-25T04:15:24.851Z,16.33
2018-06-25T04:17:55.187Z,16.33
2018-06-25T04:20:25.975Z,16.34
2018-06-25T04:22:56.171Z,16.35
2018-06-25T04:25:26.383Z,16.38
2018-06-25T04:27:56.521Z,16.38
2018-06-25T04:30:26.627Z,16.37
2018-06-25T04:32:57.039Z,16.35
2018-06-25T04:35:27.194Z,16.37
2018-06-25T04:37:57.571Z,16.36
2018-06-25T04:40:27.714Z,16.34
2018-06-25T04:42:57.778Z,16.29
2018-06-25T04:45:28.019Z,16.28
2018-06-25T04:47:58.203Z,16.26
2018-06-25T04:50:28.368Z,16.25
2018-06-25T04:52:58.832Z,16.26
2018-06-25T04:55:29.834Z,16.27
2018-06-25T04:58:00.085Z,16.30
2018-06-25T05:00:30.304Z,16.28
2018-06-25T05:03:00.850Z,16.25
2018-06-25T05:05:30.952Z,16.21
2018-06-25T05:08:01.249Z,16.13
2018-06-25T05:10:31.979Z,16.07
2018-06-25T05:13:02.214Z,16.02
2018-06-25T05:15:32.535Z,15.98
2018-06-25T05:18:02.683Z,15.98
2018-06-25T05:20:32.872Z,15.98
2018-06-25T05:23:03.140Z,15.97
2018-06-25T05:25:34.650Z,15.99
2018-06-25T05:28:04.957Z,15.95
2018-06-25T05:30:35.754Z,15.92
2018-06-25T05:33:06.543Z,15.90
2018-06-25T05:35:36.818Z,15.86
2018-06-25T05:38:07.145Z,15.84
2018-06-25T05:40:37.515Z,15.85
2018-06-25T05:43:07.726Z,15.88
2018-06-25T05:45:37.840Z,15.88
2018-06-25T05:48:07.917Z,15.89
2018-06-25T05:50:38.048Z,15.90
2018-06-25T05:53:08.256Z,15.94
2018-06-25T05:55:38.459Z,15.93
2018-06-25T05:58:08.686Z,15.92
2018-06-25T06:00:38.941Z,15.87
2018-06-25T06:03:09.172Z,15.87
2018-06-25T06:05:39.912Z,15.87
2018-06-25T06:08:10.523Z,15.86
2018-06-25T06:10:40.825Z,15.86
2018-06-25T06:13:11.079Z,15.89
2018-06-25T06:15:41.662Z,15.92
2018-06-25T06:18:12.514Z,15.95
2018-06-25T06:20:42.815Z,15.98
2018-06-25T06:23:13.215Z,16.01
2018-06-25T06:25:43.427Z,16.03
2018-06-25T06:28:13.579Z,16.04
2018-06-25T06:30:43.640Z,16.05
2018-06-25T06:33:14.136Z,16.02
2018-06-25T06:35:44.417Z,15.98
2018-06-25T06:38:14.798Z,15.97
2018-06-25T06:40:45.138Z,15.97
2018-06-25T06:43:15.041Z,15.95
2018-06-25T06:45:45.386Z,15.93
2018-06-25T06:48:15.690Z,15.89
2018-06-25T06:50:45.855Z,15.84
2018-06-25T06:53:16.061Z,15.81
2018-06-25T06:55:46.167Z,15.78
2018-06-25T06:58:16.284Z,15.79
2018-06-25T07:00:46.505Z,15.80
2018-06-25T07:03:17.417Z,15.82
2018-06-25T07:05:47.698Z,15.86
2018-06-25T07:08:17.962Z,15.93
2018-06-25T07:10:48.199Z,15.97
2018-06-25T07:13:19.293Z,16.01
2018-06-25T07:15:49.553Z,16.06
2018-06-25T07:18:19.694Z,16.13
2018-06-25T07:20:50.121Z,16.17
2018-06-25T07:23:20.662Z,16.21
2018-06-25T07:25:50.785Z,16.21
2018-06-25T07:28:20.781Z,16.25
2018-06-25T07:30:50.988Z,16.28
2018-06-25T07:33:21.818Z,16.33
2018-06-25T07:35:52.173Z,16.37
2018-06-25T07:38:22.231Z,16.43
2018-06-25T07:40:52.473Z,16.49
2018-06-25T07:43:22.644Z,16.56
2018-06-25T07:45:52.808Z,16.63
2018-06-25T07:48:22.931Z,16.68
2018-06-25T07:50:53.514Z,16.69
2018-06-25T07:53:23.571Z,16.73
2018-06-25T07:55:54.551Z,16.76
2018-06-25T07:58:24.845Z,16.82
2018-06-25T08:00:55.178Z,16.85
2018-06-25T08:03:25.342Z,16.88
2018-06-25T08:05:55.549Z,16.90
2018-06-25T08:08:26.023Z,16.94
2018-06-25T08:10:56.232Z,16.98
2018-06-25T08:13:26.437Z,17.03
2018-06-25T08:15:57.227Z,17.09
2018-06-25T08:18:27.218Z,17.15
2018-06-25T08:20:57.200Z,17.20
2018-06-25T08:23:27.418Z,17.23
2018-06-25T08:25:57.618Z,17.28
2018-06-25T08:28:27.973Z,17.33
2018-06-25T08:30:58.634Z,17.41
2018-06-25T08:33:29.751Z,17.47
2018-06-25T08:35:59.939Z,17.53
2018-06-25T08:38:30.544Z,17.58
2018-06-25T08:41:00.772Z,17.63
2018-06-25T08:43:30.979Z,17.69
2018-06-25T08:46:01.646Z,17.74
2018-06-25T08:48:31.823Z,17.75
2018-06-25T08:51:01.957Z,17.75
2018-06-25T08:53:32.081Z,17.84
2018-06-25T08:56:02.274Z,17.90
2018-06-25T08:58:32.522Z,17.95
2018-06-25T09:01:02.722Z,18.03
2018-06-25T09:03:33.273Z,18.08
2018-06-25T09:06:03.540Z,18.11
2018-06-25T09:08:33.670Z,18.14
2018-06-25T09:11:03.806Z,18.20
2018-06-25T09:13:33.871Z,18.26
2018-06-25T09:16:04.108Z,18.27
2018-06-25T09:18:34.362Z,18.36
2018-06-25T09:21:05.299Z,18.41
2018-06-25T09:23:35.300Z,18.44
2018-06-25T09:26:05.549Z,18.43
2018-06-25T09:28:37.035Z,18.43
2018-06-25T09:31:07.427Z,18.48
2018-06-25T09:33:37.599Z,18.52
2018-06-25T09:36:07.722Z,18.56
2018-06-25T09:38:37.983Z,18.60
2018-06-25T09:41:08.515Z,18.61
2018-06-25T09:43:38.860Z,18.60
2018-06-25T09:46:09.294Z,18.61
2018-06-25T09:48:39.499Z,18.62
2018-06-25T09:51:09.585Z,18.62
2018-06-25T09:53:39.732Z,18.58
2018-06-25T09:56:10.022Z,18.49
2018-06-25T09:58:40.226Z,18.50
2018-06-25T10:01:10.870Z,18.46
2018-06-25T10:03:42.263Z,18.43
2018-06-25T10:06:12.453Z,18.33
2018-06-25T10:08:42.742Z,18.29
2018-06-25T10:11:13.150Z,18.26
2018-06-25T10:13:45.088Z,18.27
2018-06-25T10:16:15.186Z,18.29
2018-06-25T10:18:45.824Z,18.33
2018-06-25T10:21:15.973Z,18.36
2018-06-25T10:23:46.309Z,18.34
2018-06-25T10:26:16.531Z,18.42
2018-06-25T10:28:46.719Z,18.48
2018-06-25T10:31:16.977Z,18.51
2018-06-25T10:33:46.989Z,18.52
2018-06-25T10:36:17.509Z,18.56
2018-06-25T10:38:47.736Z,18.62
2018-06-25T10:41:18.021Z,18.69
2018-06-25T10:43:48.738Z,18.76
2018-06-25T10:46:18.923Z,18.82
2018-06-25T10:48:49.515Z,18.88
2018-06-25T10:51:20.332Z,18.95
2018-06-25T10:53:50.494Z,19.00
2018-06-25T10:56:20.745Z,19.03
2018-06-25T10:58:50.971Z,19.07
2018-06-25T11:01:21.089Z,19.09
2018-06-25T11:03:51.288Z,19.10
2018-06-25T11:06:21.501Z,19.11
2018-06-25T11:08:51.942Z,19.10
2018-06-25T11:11:22.481Z,19.03
2018-06-25T11:13:52.676Z,18.98
2018-06-25T11:16:22.914Z,18.98
2018-06-25T11:18:53.463Z,18.97
2018-06-25T11:21:24.585Z,18.97
2018-06-25T11:23:55.061Z,18.98
2018-06-25T11:26:25.923Z,18.98
2018-06-25T11:28:56.214Z,18.94
2018-06-25T11:31:26.436Z,18.92
2018-06-25T11:33:56.624Z,18.90
2018-06-25T11:36:26.926Z,18.88
2018-06-25T11:38:57.132Z,18.87
2018-06-25T11:41:33.976Z,18.87
2018-06-25T11:44:04.381Z,18.89
2018-06-25T11:46:34.646Z,18.95
2018-06-25T11:49:05.708Z,18.98
2018-06-25T11:51:35.960Z,19.02
2018-06-25T11:54:06.258Z,19.05
2018-06-25T11:56:37.178Z,19.11
2018-06-25T11:59:07.351Z,19.17
2018-06-25T12:01:37.837Z,19.23
2018-06-25T12:04:08.240Z,19.28
2018-06-25T12:06:38.679Z,19.36
2018-06-25T12:09:10.138Z,19.40
2018-06-25T12:11:40.656Z,19.41
2018-06-25T12:14:11.005Z,19.46
2018-06-25T12:16:41.234Z,19.53
2018-06-25T12:19:11.390Z,19.57
2018-06-25T12:21:41.642Z,19.59
2018-06-25T12:24:11.536Z,19.64
2018-06-25T12:26:41.398Z,19.69
2018-06-25T12:29:11.740Z,19.74
2018-06-25T12:31:41.921Z,19.79
2018-06-25T12:34:12.032Z,19.79
2018-06-25T12:36:42.581Z,19.80
2018-06-25T12:39:12.799Z,19.82
2018-06-25T12:41:43.058Z,19.87
2018-06-25T12:44:13.310Z,19.90
2018-06-25T12:46:43.409Z,19.92
2018-06-25T12:49:13.518Z,19.95
2018-06-25T12:51:43.690Z,20.00
2018-06-25T12:54:13.912Z,20.03
2018-06-25T12:56:44.004Z,20.10
2018-06-25T12:59:14.251Z,20.16
2018-06-25T13:01:44.574Z,20.22
2018-06-25T13:04:17.425Z,20.24
2018-06-25T13:06:48.081Z,20.23
2018-06-25T13:09:18.643Z,20.23
2018-06-25T13:11:48.939Z,20.25
2018-06-25T13:14:19.524Z,20.24
2018-06-25T13:16:50.443Z,20.24
2018-06-25T13:19:21.019Z,20.25
2018-06-25T13:21:51.268Z,20.25
2018-06-25T13:24:22.356Z,20.29
2018-06-25T13:26:52.715Z,20.32
2018-06-25T13:29:23.169Z,20.35
2018-06-25T13:31:54.380Z,20.36
2018-06-25T13:34:24.766Z,20.36
2018-06-25T13:36:55.816Z,20.37
2018-06-25T13:39:26.279Z,20.36
2018-06-25T13:41:56.610Z,20.33
2018-06-25T13:44:26.746Z,20.28
2018-06-25T13:46:57.173Z,20.26
2018-06-25T13:49:27.776Z,20.27
2018-06-25T13:51:57.960Z,20.27
2018-06-25T13:54:28.222Z,20.27
2018-06-25T13:56:58.388Z,20.30
2018-06-25T13:59:28.454Z,20.33
2018-06-25T14:01:58.642Z,20.34
2018-06-25T14:04:29.001Z,20.38
2018-06-25T14:06:59.392Z,20.45
2018-06-25T14:09:29.560Z,20.55
2018-06-25T14:12:00.727Z,20.70
2018-06-25T14:14:30.904Z,20.83
2018-06-25T14:17:01.214Z,20.98
2018-06-25T14:19:31.455Z,21.12
2018-06-25T14:22:02.076Z,21.29
2018-06-25T14:24:37.827Z,21.46
2018-06-25T14:27:11.842Z,21.65
2018-06-25T14:29:42.107Z,21.83
2018-06-25T14:32:17.372Z,21.99
2018-06-25T14:34:52.901Z,22.15
2018-06-25T14:37:22.951Z,22.28
2018-06-25T14:39:53.572Z,22.33
2018-06-25T14:42:24.149Z,22.36
2018-06-25T14:44:54.752Z,22.38
2018-06-25T14:47:26.871Z,22.38
2018-06-25T14:49:57.173Z,22.37
2018-06-25T14:52:28.081Z,22.37
2018-06-25T14:54:58.478Z,22.36
2018-06-25T14:57:28.454Z,22.34
2018-06-25T14:59:58.807Z,22.29
2018-06-25T15:02:29.390Z,22.21
2018-06-25T15:04:59.875Z,22.15
2018-06-25T15:07:30.052Z,22.13
2018-06-25T15:10:00.376Z,22.11
2018-06-25T15:12:30.495Z,22.09
2018-06-25T15:15:00.904Z,22.08
2018-06-25T15:17:31.171Z,22.07
2018-06-25T15:20:01.157Z,22.05
2018-06-25T15:22:31.447Z,22.03
2018-06-25T15:25:01.636Z,22.01
2018-06-25T15:27:31.683Z,21.95
2018-06-25T15:30:01.582Z,21.94
2018-06-25T15:32:32.762Z,21.95
2018-06-25T15:35:03.095Z,21.99
2018-06-25T15:37:33.228Z,22.03
2018-06-25T15:40:03.468Z,22.05
2018-06-25T15:42:33.396Z,22.00
2018-06-25T15:45:04.130Z,21.98
2018-06-25T15:47:34.245Z,21.94
2018-06-25T15:50:04.919Z,21.90
2018-06-25T15:52:34.959Z,21.89
2018-06-25T15:55:05.871Z,21.89
2018-06-25T15:57:36.018Z,21.89
2018-06-25T16:00:06.224Z,21.91
2018-06-25T16:02:36.636Z,21.89
2018-06-25T16:05:06.847Z,21.86
2018-06-25T16:07:37.207Z,21.86
2018-06-25T16:10:07.056Z,21.89
2018-06-25T16:12:37.302Z,21.90
2018-06-25T16:15:07.544Z,21.90
2018-06-25T16:17:37.548Z,21.92
2018-06-25T16:20:07.572Z,21.98
2018-06-25T16:22:37.594Z,22.04
2018-06-25T16:25:08.105Z,22.08
2018-06-25T16:27:38.369Z,22.12
2018-06-25T16:30:08.917Z,22.14
2018-06-25T16:32:39.082Z,22.14
2018-06-25T16:35:09.152Z,22.16
2018-06-25T16:37:40.307Z,22.16
2018-06-25T16:40:10.701Z,22.15
2018-06-25T16:42:40.787Z,22.13
2018-06-25T16:45:11.483Z,22.10
2018-06-25T16:47:42.222Z,22.05
2018-06-25T16:50:12.598Z,22.01
2018-06-25T16:52:42.653Z,21.98
2018-06-25T16:55:12.741Z,21.94
2018-06-25T16:57:43.121Z,21.90
2018-06-25T17:00:13.405Z,21.86
2018-06-25T17:02:43.385Z,21.84
2018-06-25T17:05:13.467Z,21.79
2018-06-25T17:07:43.573Z,21.73
2018-06-25T17:10:13.792Z,21.66
2018-06-25T17:12:43.967Z,21.60
2018-06-25T17:15:13.960Z,21.54
2018-06-25T17:17:44.568Z,21.51
2018-06-25T17:20:15.365Z,21.48
2018-06-25T17:22:45.673Z,21.47
2018-06-25T17:25:15.883Z,21.46
2018-06-25T17:27:46.349Z,21.38
2018-06-25T17:30:17.247Z,21.33
2018-06-25T17:32:47.721Z,21.29
2018-06-25T17:35:18.399Z,21.25
2018-06-25T17:37:48.675Z,21.22
2018-06-25T17:40:20.265Z,21.19
2018-06-25T17:42:50.601Z,21.15
2018-06-25T17:45:20.800Z,21.12
2018-06-25T17:47:51.538Z,21.08
2018-06-25T17:50:22.010Z,21.02
2018-06-25T17:52:52.222Z,20.99
2018-06-25T17:55:23.208Z,20.93
2018-06-25T17:57:53.586Z,20.87
2018-06-25T18:00:23.653Z,20.85
2018-06-25T18:02:53.884Z,20.79
2018-06-25T18:05:24.214Z,20.76
2018-06-25T18:07:54.386Z,20.70
2018-06-25T18:10:25.293Z,20.62
2018-06-25T18:12:55.514Z,20.59
2018-06-25T18:15:25.945Z,20.53
2018-06-25T18:17:56.099Z,20.47
2018-06-25T18:20:26.448Z,20.43
2018-06-25T18:22:56.516Z,20.40
2018-06-25T18:25:26.937Z,20.37
2018-06-25T18:27:57.158Z,20.35
2018-06-25T18:30:27.404Z,20.31
2018-06-25T18:32:57.776Z,20.27
2018-06-25T18:35:28.394Z,20.24
2018-06-25T18:37:58.385Z,20.22
2018-06-25T18:40:28.707Z,20.17
2018-06-25T18:42:58.935Z,20.15
2018-06-25T18:45:29.190Z,20.10
2018-06-25T18:47:59.285Z,20.08
2018-06-25T18:50:30.073Z,20.03
2018-06-25T18:53:00.605Z,20.01
2018-06-25T18:55:31.034Z,20.00
2018-06-25T18:58:01.360Z,19.97
2018-06-25T19:00:31.884Z,19.94
2018-06-25T19:03:02.703Z,19.91
2018-06-25T19:05:32.897Z,19.90
2018-06-25T19:08:03.566Z,19.88
2018-06-25T19:10:33.971Z,19.87
2018-06-25T19:13:04.284Z,19.84
2018-06-25T19:15:34.418Z,19.82
2018-06-25T19:18:04.811Z,19.79
2018-06-25T19:20:35.197Z,19.78
2018-06-25T19:23:06.295Z,19.77
2018-06-25T19:25:36.507Z,19.74
2018-06-25T19:28:06.708Z,19.73
2018-06-25T19:30:37.070Z,19.72
2018-06-25T19:33:07.443Z,19.71
2018-06-25T19:35:37.576Z,19.67
2018-06-25T19:38:08.788Z,19.64
2018-06-25T19:40:39.161Z,19.63
2018-06-25T19:43:09.544Z,19.61
2018-06-25T19:45:40.408Z,19.60
2018-06-25T19:48:10.764Z,19.57
2018-06-25T19:50:41.130Z,19.53
2018-06-25T19:53:11.436Z,19.53
2018-06-25T19:55:41.733Z,19.51
2018-06-25T19:58:11.750Z,19.49
2018-06-25T20:00:42.459Z,19.48
2018-06-25T20:03:12.983Z,19.45
2018-06-25T20:05:43.008Z,19.41
2018-06-25T20:08:13.459Z,19.39
2018-06-25T20:10:43.895Z,19.39
2018-06-25T20:13:13.902Z,19.37
2018-06-25T20:15:44.089Z,19.35
2018-06-25T20:18:14.586Z,19.32
2018-06-25T20:20:44.927Z,19.31
2018-06-25T20:23:15.560Z,19.30
2018-06-25T20:25:46.282Z,19.28
2018-06-25T20:28:17.165Z,19.26
2018-06-25T20:30:47.957Z,19.24
2018-06-25T20:33:18.249Z,19.21
2018-06-25T20:35:48.450Z,19.19
2018-06-25T20:38:18.907Z,19.18
2018-06-25T20:40:49.043Z,19.15
2018-06-25T20:43:19.356Z,19.13
2018-06-25T20:45:50.438Z,19.12
2018-06-25T20:48:20.484Z,19.10
2018-06-25T20:50:50.604Z,19.07
2018-06-25T20:53:20.714Z,19.04
2018-06-25T20:55:51.004Z,19.02
2018-06-25T20:58:21.234Z,18.99
2018-06-25T21:00:51.545Z,18.96
2018-06-25T21:03:21.757Z,18.92
2018-06-25T21:05:52.254Z,18.90
2018-06-25T21:08:22.881Z,18.87
2018-06-25T21:10:53.378Z,18.83
2018-06-25T21:13:23.675Z,18.81
2018-06-25T21:15:53.946Z,18.77
2018-06-25T21:18:24.947Z,18.75
2018-06-25T21:20:54.990Z,18.73
2018-06-25T21:23:25.248Z,18.72
2018-06-25T21:25:55.559Z,18.68
2018-06-25T21:28:25.737Z,18.67
2018-06-25T21:30:55.980Z,18.66
2018-06-25T21:33:26.146Z,18.65
2018-06-25T21:35:57.388Z,18.65
2018-06-25T21:38:27.754Z,18.65
2018-06-25T21:40:57.927Z,18.65
2018-06-25T21:43:28.609Z,18.63
2018-06-25T21:45:58.870Z,18.61
2018-06-25T21:48:29.009Z,18.58
2018-06-25T21:50:59.108Z,18.57
2018-06-25T21:53:29.442Z,18.58
2018-06-25T21:56:02.577Z,18.56
2018-06-25T21:58:32.827Z,18.53
2018-06-25T22:01:04.418Z,18.49
2018-06-25T22:03:34.382Z,18.52
2018-06-25T22:06:05.255Z,18.50
2018-06-25T22:08:35.485Z,18.49
2018-06-25T22:11:05.607Z,18.48
2018-06-25T22:13:35.689Z,18.45
2018-06-25T22:16:06.136Z,18.48
2018-06-25T22:18:36.842Z,18.47
2018-06-25T22:21:07.205Z,18.47
2018-06-25T22:23:37.266Z,18.47
2018-06-25T22:26:07.565Z,18.48
2018-06-25T22:28:37.880Z,18.46
2018-06-25T22:31:08.091Z,18.47
2018-06-25T22:33:38.372Z,18.48
2018-06-25T22:36:08.825Z,18.43
2018-06-25T22:38:39.453Z,18.45
2018-06-25T22:41:09.878Z,18.42
2018-06-25T22:43:40.166Z,18.43
2018-06-25T22:46:10.098Z,18.42
2018-06-25T22:48:40.130Z,18.41
2018-06-25T22:51:10.288Z,18.39
2018-06-25T22:53:40.297Z,18.38
2018-06-25T22:56:10.519Z,18.36
2018-06-25T22:58:40.792Z,18.33
2018-06-25T23:01:11.105Z,18.35
2018-06-25T23:03:41.368Z,18.33
2018-06-25T23:06:11.678Z,18.32
2018-06-25T23:08:41.839Z,18.30
2018-06-25T23:11:12.438Z,18.32
2018-06-25T23:13:42.472Z,18.32
2018-06-25T23:16:12.713Z,18.31
2018-06-25T23:18:44.827Z,18.29
2018-06-25T23:21:15.239Z,18.28
2018-06-25T23:23:45.514Z,18.24
2018-06-25T23:26:15.702Z,18.25
2018-06-25T23:28:45.805Z,18.21
2018-06-25T23:31:16.112Z,18.20
2018-06-25T23:33:46.350Z,18.18
2018-06-25T23:36:16.551Z,18.15
2018-06-25T23:38:53.227Z,18.11
2018-06-25T23:41:23.986Z,18.08
2018-06-25T23:43:54.165Z,18.06
2018-06-25T23:46:24.506Z,18.06
2018-06-25T23:48:54.733Z,18.07
2018-06-25T23:51:24.839Z,18.06
2018-06-25T23:53:55.076Z,18.07
2018-06-25T23:56:25.204Z,18.07
2018-06-25T23:58:55.563Z,18.06
